Time;durP1;ratioP1;P1;durP2;ratioP2;P2;SDS_P1;SDS_P2;PMS_P1;PMS_P2;Temp;Humidity;BMP_temperature;BMP_pressure;BME280_temperature;BME280_humidity;BME280_pressure;Samples;Min_cycle;Max_cycle;Signal;HPM_P1;HPM_P2
2022/08/10 07:01:44;;;;;;;18.50;9.35;;;17.60;99.90;;;;;;5089630;27;20390;-56
2022/08/10 07:04:17;;;;;;;13.60;8.02;;;17.60;99.90;;;;;;5076210;28;20491;-53
2022/08/10 07:06:57;;;;;;;13.98;7.55;;;17.70;99.90;;;;;;5048548;28;20038;-55
2022/08/10 07:09:24;;;;;;;16.35;7.82;;;18.00;99.90;;;;;;5040731;28;20045;-55
2022/08/10 07:11:51;;;;;;;16.33;7.70;;;18.10;99.90;;;;;;5043508;28;20052;-53
2022/08/10 07:14:17;;;;;;;14.70;7.47;;;18.20;99.90;;;;;;5042078;28;20056;-56
2022/08/10 07:16:44;;;;;;;12.80;6.63;;;18.40;99.90;;;;;;5042434;28;20045;-55
2022/08/10 07:19:11;;;;;;;16.52;7.70;;;18.50;99.90;;;;;;5042736;28;20092;-53
2022/08/10 07:21:38;;;;;;;13.82;6.72;;;18.60;99.90;;;;;;5046976;28;20045;-56
2022/08/10 07:24:06;;;;;;;14.20;6.47;;;18.80;99.90;;;;;;5038554;28;20045;-61
2022/08/10 07:26:33;;;;;;;14.52;5.80;;;18.90;99.90;;;;;;5052943;28;20040;-53
2022/08/10 07:29:00;;;;;;;16.08;6.13;;;19.00;99.90;;;;;;5050309;28;20041;-54
2022/08/10 07:31:27;;;;;;;15.10;7.05;;;19.00;99.90;;;;;;5041480;28;20415;-50
2022/08/10 07:34:14;;;;;;;14.27;6.43;;;19.10;99.90;;;;;;5039118;28;20129;-57
2022/08/10 07:36:55;;;;;;;16.05;6.05;;;19.10;99.90;;;;;;5040949;28;20480;-56
2022/08/10 07:39:21;;;;;;;17.20;6.22;;;19.10;99.90;;;;;;5047755;28;20112;-59
2022/08/10 07:42:08;;;;;;;15.80;6.38;;;19.20;99.90;;;;;;5044027;28;20053;-56
2022/08/10 07:44:35;;;;;;;10.65;5.93;;;19.20;99.90;;;;;;5055260;28;20106;-54
2022/08/10 07:47:02;;;;;;;15.73;5.75;;;19.20;99.90;;;;;;5036505;28;20045;-54
2022/08/10 07:49:29;;;;;;;15.13;5.18;;;19.30;99.90;;;;;;5040307;28;20041;-55
2022/08/10 07:51:56;;;;;;;15.93;4.78;;;19.30;99.90;;;;;;5038009;28;20046;-55
2022/08/10 07:54:23;;;;;;;12.85;4.88;;;19.40;99.90;;;;;;5046382;28;20060;-57
2022/08/10 07:56:50;;;;;;;12.68;4.90;;;19.50;99.90;;;;;;5038481;28;20395;-60
2022/08/10 07:59:16;;;;;;;17.52;4.78;;;19.50;99.90;;;;;;5045439;28;20041;-48
2022/08/10 08:01:43;;;;;;;12.05;3.97;;;19.50;99.90;;;;;;5038733;28;20049;-49
2022/08/10 08:04:10;;;;;;;12.25;3.90;;;19.60;99.90;;;;;;5047870;28;20069;-51
2022/08/10 08:06:37;;;;;;;9.35;4.10;;;19.60;99.90;;;;;;5043827;28;20079;-55
2022/08/10 08:09:04;;;;;;;12.00;4.05;;;19.70;99.90;;;;;;5038559;28;20034;-58
2022/08/10 08:11:31;;;;;;;18.63;5.38;;;19.80;99.90;;;;;;5033219;28;20492;-53
2022/08/10 08:13:58;;;;;;;11.68;4.28;;;19.80;99.90;;;;;;5031137;28;20049;-52
2022/08/10 08:16:24;;;;;;;15.50;4.80;;;19.90;99.90;;;;;;5020325;28;20052;-47
2022/08/10 08:18:51;;;;;;;14.30;4.88;;;19.90;99.90;;;;;;5030985;28;20047;-54
2022/08/10 08:21:38;;;;;;;13.90;4.55;;;20.00;99.90;;;;;;5021811;28;20065;-53
2022/08/10 08:24:25;;;;;;;14.27;4.05;;;20.00;99.90;;;;;;5015368;28;20104;-48
2022/08/10 08:26:57;;;;;;;11.82;4.35;;;20.10;99.90;;;;;;5021355;28;20100;-54
2022/08/10 08:29:24;;;;;;;11.63;4.47;;;20.20;99.90;;;;;;5017720;28;20049;-53
2022/08/10 08:31:51;;;;;;;13.20;4.35;;;20.30;99.90;;;;;;5028864;28;20045;-49
2022/08/10 08:34:27;;;;;;;14.07;5.22;;;20.30;99.90;;;;;;5020459;28;20042;-50
2022/08/10 08:36:53;;;;;;;12.80;4.43;;;20.40;99.90;;;;;;5014733;28;20378;-52
2022/08/10 08:39:25;;;;;;;9.75;3.85;;;20.30;99.90;;;;;;5017143;28;20104;-54
2022/08/10 08:41:52;;;;;;;12.05;3.90;;;20.40;99.90;;;;;;5015823;28;20046;-54
2022/08/10 08:44:19;;;;;;;8.82;3.72;;;20.40;99.90;;;;;;5015492;28;20130;-52
2022/08/10 08:46:45;;;;;;;15.73;3.75;;;20.50;99.90;;;;;;5027604;28;20469;-52
2022/08/10 08:49:24;;;;;;;11.15;3.08;;;20.50;99.90;;;;;;5023022;28;20034;-50
2022/08/10 08:52:11;;;;;;;13.57;3.33;;;20.60;99.90;;;;;;5022450;28;20444;-53
2022/08/10 08:54:45;;;;;;;10.95;3.40;;;20.70;99.90;;;;;;5014178;28;20448;-47
2022/08/10 08:57:12;;;;;;;13.57;3.45;;;20.80;99.90;;;;;;5017003;28;20072;-55
2022/08/10 09:00:00;;;;;;;13.90;2.97;;;20.90;99.90;;;;;;5021726;28;20052;-47
2022/08/10 09:02:26;;;;;;;10.77;3.28;;;21.00;99.90;;;;;;5017967;28;20096;-52
2022/08/10 09:04:53;;;;;;;9.35;2.88;;;21.10;99.90;;;;;;5034026;28;20443;-45
2022/08/10 09:07:20;;;;;;;9.90;2.40;;;21.10;99.90;;;;;;5023557;28;20046;-53
2022/08/10 09:10:07;;;;;;;7.93;2.50;;;21.20;99.90;;;;;;5031875;28;20072;-56
2022/08/10 09:12:33;;;;;;;8.25;2.60;;;21.20;99.70;;;;;;5013775;28;20038;-48
2022/08/10 09:15:01;;;;;;;10.50;2.80;;;21.30;99.60;;;;;;5021996;28;20073;-54
2022/08/10 09:17:27;;;;;;;13.23;2.85;;;21.30;99.20;;;;;;5032508;28;20046;-51
2022/08/10 09:19:54;;;;;;;11.43;2.75;;;21.40;99.40;;;;;;5035050;28;20045;-55
2022/08/10 09:22:21;;;;;;;11.30;2.90;;;21.40;99.50;;;;;;5014813;28;20049;-53
2022/08/10 09:24:48;;;;;;;10.45;2.90;;;21.60;99.20;;;;;;5013562;28;20492;-50
2022/08/10 09:27:15;;;;;;;8.88;2.90;;;21.70;98.70;;;;;;5014682;28;20038;-49
2022/08/10 09:29:41;;;;;;;12.95;2.60;;;21.70;98.60;;;;;;5014760;28;20068;-44
2022/08/10 09:32:08;;;;;;;17.92;3.55;;;21.80;98.50;;;;;;5019976;28;20091;-54
2022/08/10 09:34:55;;;;;;;8.93;3.00;;;21.80;98.70;;;;;;5014714;28;20066;-54
2022/08/10 09:37:42;;;;;;;7.43;2.47;;;21.90;98.10;;;;;;5032791;28;20484;-55
2022/08/10 09:40:28;;;;;;;8.65;2.03;;;22.00;97.60;;;;;;5020000;28;20053;-58
2022/08/10 09:43:14;;;;;;;9.63;2.08;;;22.10;97.00;;;;;;5014203;28;20069;-49
2022/08/10 09:45:52;;;;;;;10.18;2.40;;;22.10;97.00;;;;;;5018714;28;20061;-58
2022/08/10 09:48:18;;;;;;;6.20;2.38;;;22.20;96.10;;;;;;5020818;28;20412;-50
2022/08/10 09:50:45;;;;;;;7.05;2.35;;;22.30;96.00;;;;;;5014390;28;20046;-50
2022/08/10 09:53:32;;;;;;;10.93;2.50;;;22.30;95.60;;;;;;5027023;28;20554;-49
2022/08/10 09:55:59;;;;;;;5.25;1.98;;;22.40;94.90;;;;;;5014477;28;20076;-53
2022/08/10 09:58:45;;;;;;;8.93;1.73;;;22.50;95.00;;;;;;5016944;28;20112;-50
2022/08/10 10:01:12;;;;;;;5.68;1.83;;;22.70;94.10;;;;;;5014158;28;20519;-47
2022/08/10 10:03:59;;;;;;;6.07;2.00;;;22.70;94.10;;;;;;5019710;28;20049;-52
2022/08/10 10:06:26;;;;;;;6.95;2.40;;;22.70;93.50;;;;;;5033079;28;20045;-55
2022/08/10 10:08:52;;;;;;;9.32;1.80;;;22.80;94.00;;;;;;5027543;28;20041;-55
2022/08/10 10:11:36;;;;;;;5.97;1.52;;;22.80;94.10;;;;;;5028150;28;20109;-58
2022/08/10 10:14:02;;;;;;;6.95;1.83;;;22.90;93.50;;;;;;5025229;28;20034;-47
2022/08/10 10:16:34;;;;;;;13.23;1.73;;;23.10;91.80;;;;;;5014038;28;20065;-48
2022/08/10 10:19:01;;;;;;;10.15;1.98;;;23.10;92.40;;;;;;5014000;28;20092;-58
2022/08/10 10:21:28;;;;;;;6.05;1.60;;;23.20;91.90;;;;;;5015618;28;20111;-51
2022/08/10 10:24:15;;;;;;;8.38;1.60;;;23.30;91.50;;;;;;5032638;28;20073;-54
2022/08/10 10:26:48;;;;;;;5.38;1.30;;;23.40;91.20;;;;;;5032638;28;20047;-53
2022/08/10 10:29:17;;;;;;;4.38;1.55;;;23.50;90.40;;;;;;5031563;28;20050;-54
2022/08/10 10:32:04;;;;;;;4.82;1.48;;;23.50;90.40;;;;;;5018063;28;20030;-52
2022/08/10 10:34:30;;;;;;;4.95;1.98;;;23.50;90.00;;;;;;5030780;28;20045;-54
2022/08/10 10:36:57;;;;;;;5.45;1.50;;;23.50;89.70;;;;;;5024971;28;20451;-50
2022/08/10 10:39:24;;;;;;;5.53;1.40;;;23.60;89.80;;;;;;5012278;28;20065;-49
2022/08/10 10:41:51;;;;;;;4.53;1.50;;;23.70;89.30;;;;;;5020992;28;20041;-50
2022/08/10 10:44:30;;;;;;;6.93;1.67;;;23.70;89.70;;;;;;5023718;28;20045;-46
2022/08/10 10:46:56;;;;;;;6.65;1.58;;;23.80;89.20;;;;;;5028767;28;20045;-50
2022/08/10 10:49:23;;;;;;;4.47;1.48;;;23.90;90.00;;;;;;5023557;28;20095;-52
2022/08/10 10:51:50;;;;;;;4.35;1.42;;;24.00;88.20;;;;;;5019817;28;20044;-57
2022/08/10 10:54:17;;;;;;;3.67;1.23;;;23.90;87.80;;;;;;5013469;28;20037;-49
2022/08/10 10:56:44;;;;;;;5.70;1.58;;;23.90;89.20;;;;;;5012934;28;20038;-52
2022/08/10 10:59:10;;;;;;;7.80;1.27;;;23.90;87.60;;;;;;5013471;28;20117;-57
2022/08/10 11:01:57;;;;;;;7.57;1.40;;;24.00;85.70;;;;;;5013430;28;20053;-50
2022/08/10 11:04:24;;;;;;;6.30;1.50;;;24.10;86.30;;;;;;5020541;28;20042;-49
2022/08/10 11:06:51;;;;;;;7.72;1.15;;;24.10;87.00;;;;;;5024224;28;20446;-58
2022/08/10 11:09:18;;;;;;;7.13;1.33;;;24.20;87.40;;;;;;5020368;28;20048;-56
2022/08/10 11:12:05;;;;;;;7.32;1.50;;;24.30;87.70;;;;;;5026325;28;20060;-48
2022/08/10 11:14:32;;;;;;;9.10;1.48;;;24.40;86.30;;;;;;5030813;28;20527;-52
2022/08/10 11:16:59;;;;;;;7.72;1.38;;;24.40;85.90;;;;;;5025213;28;20492;-54
2022/08/10 11:19:26;;;;;;;6.30;1.33;;;24.40;84.60;;;;;;5018248;28;20046;-49
2022/08/10 11:22:12;;;;;;;5.95;1.50;;;24.40;85.10;;;;;;5030060;28;20041;-52
2022/08/10 11:24:42;;;;;;;5.13;1.30;;;24.50;85.00;;;;;;5019468;28;20041;-52
2022/08/10 11:27:15;;;;;;;3.33;1.20;;;24.50;85.30;;;;;;5023144;28;20038;-51
2022/08/10 11:29:47;;;;;;;7.03;1.40;;;24.60;83.10;;;;;;5015349;28;20050;-54
2022/08/10 11:32:15;;;;;;;8.35;1.05;;;24.60;84.30;;;;;;5029988;28;20037;-52
2022/08/10 11:34:47;;;;;;;3.08;1.20;;;24.70;82.20;;;;;;5025784;28;20042;-51
2022/08/10 11:37:34;;;;;;;4.57;0.90;;;24.80;82.00;;;;;;5012875;28;20054;-57
2022/08/10 11:40:20;;;;;;;4.95;1.02;;;24.80;81.20;;;;;;5019566;28;20038;-52
2022/08/10 11:42:47;;;;;;;5.53;1.08;;;24.90;80.10;;;;;;5016540;28;20077;-56
2022/08/10 11:45:14;;;;;;;7.28;1.30;;;24.90;80.10;;;;;;5028364;28;20565;-57
2022/08/10 11:47:40;;;;;;;3.88;1.00;;;24.90;79.60;;;;;;5031516;28;20053;-53
2022/08/10 11:50:07;;;;;;;7.20;1.17;;;25.00;79.70;;;;;;5018870;28;20049;-55
2022/08/10 11:52:34;;;;;;;4.30;1.10;;;25.00;80.00;;;;;;5035585;28;20041;-50
2022/08/10 11:55:01;;;;;;;5.32;1.00;;;25.00;80.00;;;;;;5035493;28;20045;-52
2022/08/10 11:57:28;;;;;;;5.28;1.10;;;25.10;76.40;;;;;;5027856;28;20046;-54
2022/08/10 12:00:14;;;;;;;3.30;1.23;;;25.10;76.30;;;;;;5016330;28;20050;-46
2022/08/10 12:02:41;;;;;;;5.03;0.90;;;25.10;75.50;;;;;;5016423;28;20489;-50
2022/08/10 12:05:08;;;;;;;2.58;1.05;;;25.20;75.40;;;;;;5023308;28;20052;-59
2022/08/10 12:07:35;;;;;;;5.10;1.08;;;25.30;74.50;;;;;;5024062;28;20045;-47
2022/08/10 12:10:21;;;;;;;6.25;1.05;;;25.30;74.90;;;;;;5024038;28;20045;-56
2022/08/10 12:12:48;;;;;;;5.40;1.02;;;25.30;73.40;;;;;;5033737;28;20041;-52
2022/08/10 12:15:15;;;;;;;3.60;0.93;;;25.40;73.80;;;;;;5034349;28;20041;-53
2022/08/10 12:17:42;;;;;;;4.75;1.00;;;25.40;73.30;;;;;;5034558;28;20034;-51
2022/08/10 12:20:09;;;;;;;1.80;0.80;;;25.30;74.80;;;;;;5021794;28;20033;-51
2022/08/10 12:22:36;;;;;;;2.17;0.80;;;25.30;75.10;;;;;;5015829;28;20046;-54
2022/08/10 12:25:03;;;;;;;4.13;1.02;;;25.40;75.10;;;;;;5015927;28;20068;-56
2022/08/10 12:27:30;;;;;;;3.95;1.48;;;25.50;74.30;;;;;;5015713;28;20046;-53
2022/08/10 12:29:57;;;;;;;5.03;1.10;;;25.40;73.20;;;;;;5030789;28;20050;-56
2022/08/10 12:32:24;;;;;;;4.47;1.30;;;25.40;74.50;;;;;;5015825;28;20077;-59
2022/08/10 12:34:51;;;;;;;4.97;1.00;;;25.50;73.70;;;;;;5015472;28;20041;-49
2022/08/10 12:37:18;;;;;;;6.20;1.02;;;25.50;74.20;;;;;;5015544;28;20416;-50
2022/08/10 12:39:45;;;;;;;2.35;0.77;;;25.50;73.70;;;;;;5015774;28;20033;-54
2022/08/10 12:42:12;;;;;;;2.70;0.90;;;25.50;72.90;;;;;;5015313;28;20378;-52
2022/08/10 12:44:58;;;;;;;3.45;1.00;;;25.50;71.80;;;;;;5015759;28;20045;-54
2022/08/10 12:47:25;;;;;;;5.95;1.08;;;25.60;71.50;;;;;;5017508;28;20042;-55
2022/08/10 12:49:52;;;;;;;6.07;0.90;;;25.70;71.50;;;;;;5021374;28;20037;-57
2022/08/10 12:52:39;;;;;;;4.72;1.10;;;25.70;71.40;;;;;;5021778;28;20045;-48
2022/08/10 12:55:05;;;;;;;4.40;0.95;;;25.80;71.20;;;;;;5020048;28;20537;-50
2022/08/10 12:57:32;;;;;;;5.53;1.10;;;25.80;70.60;;;;;;5016995;28;20038;-51
2022/08/10 12:59:59;;;;;;;5.90;1.00;;;25.80;70.50;;;;;;5019686;28;20042;-46
2022/08/10 13:02:26;;;;;;;2.88;1.00;;;25.70;70.80;;;;;;5031709;28;20053;-51
2022/08/10 13:04:53;;;;;;;2.47;0.90;;;25.70;70.70;;;;;;5034338;28;20492;-51
2022/08/10 13:07:20;;;;;;;2.65;1.05;;;25.70;70.80;;;;;;5027825;28;20042;-47
2022/08/10 13:10:06;;;;;;;3.75;1.00;;;25.80;71.70;;;;;;5015542;28;20054;-50
2022/08/10 13:12:33;;;;;;;3.10;1.00;;;26.00;70.10;;;;;;5021295;28;20444;-43
2022/08/10 13:15:06;;;;;;;5.30;1.08;;;25.90;68.90;;;;;;5015129;28;20052;-51
2022/08/10 13:17:52;;;;;;;2.45;1.05;;;25.80;68.80;;;;;;5031253;28;20120;-52
2022/08/10 13:20:19;;;;;;;3.28;1.10;;;25.80;69.80;;;;;;5018059;28;20088;-50
2022/08/10 13:22:46;;;;;;;1.92;0.80;;;25.80;70.00;;;;;;5020554;28;20080;-54
2022/08/10 13:25:13;;;;;;;4.60;1.50;;;25.80;70.60;;;;;;5024122;28;20038;-47
2022/08/10 13:27:40;;;;;;;3.67;1.10;;;25.90;70.00;;;;;;5019464;28;20049;-49
2022/08/10 13:30:26;;;;;;;3.20;1.15;;;25.90;70.80;;;;;;5021001;28;20107;-51
2022/08/10 13:33:03;;;;;;;4.05;1.00;;;25.90;71.50;;;;;;5032173;28;20042;-51
2022/08/10 13:35:30;;;;;;;5.80;1.00;;;26.00;70.70;;;;;;5020865;28;20048;-49
2022/08/10 13:37:57;;;;;;;8.40;1.17;;;26.00;70.60;;;;;;5027833;28;20041;-43
2022/08/10 13:40:24;;;;;;;5.07;1.00;;;26.00;69.60;;;;;;5021068;28;20473;-48
2022/08/10 14:26:20;;;;;;;5.70;1.40;;;25.60;71.10;;;;;;5120821;27;20383;-62
2022/08/10 14:28:47;;;;;;;4.68;1.20;;;25.60;71.50;;;;;;5115949;28;20036;-49
2022/08/10 14:31:13;;;;;;;4.05;1.00;;;25.60;71.10;;;;;;5110862;28;20066;-48
2022/08/10 14:33:46;;;;;;;6.85;1.40;;;25.70;71.20;;;;;;5110862;28;20101;-50
2022/08/10 14:36:13;;;;;;;5.40;1.13;;;25.80;71.00;;;;;;5114883;28;20088;-50
2022/08/10 14:38:49;;;;;;;4.32;1.58;;;25.90;71.10;;;;;;5111047;28;20042;-53
2022/08/10 14:41:18;;;;;;;6.72;1.30;;;25.90;71.00;;;;;;5115317;28;20422;-56
2022/08/10 14:44:05;;;;;;;5.47;1.30;;;26.00;70.40;;;;;;5110697;28;20093;-49
2022/08/10 14:46:32;;;;;;;2.55;1.15;;;26.00;70.90;;;;;;5110654;28;20044;-52
2022/08/10 14:48:58;;;;;;;6.05;1.38;;;26.10;70.30;;;;;;5092038;28;20449;-46
2022/08/10 14:51:45;;;;;;;5.15;1.60;;;26.10;70.20;;;;;;5110702;28;20136;-48
2022/08/10 14:54:14;;;;;;;3.88;1.30;;;26.10;70.30;;;;;;5110635;28;20105;-51
2022/08/10 14:56:43;;;;;;;3.15;1.20;;;26.20;70.90;;;;;;5110576;28;20047;-51
2022/08/10 14:59:14;;;;;;;5.13;1.10;;;26.20;68.90;;;;;;5110650;28;20046;-48
2022/08/10 15:01:42;;;;;;;4.72;1.15;;;26.10;69.60;;;;;;5110321;28;20394;-49
2022/08/10 15:04:28;;;;;;;7.30;1.40;;;26.20;68.80;;;;;;5110384;28;20097;-51
2022/08/10 15:06:55;;;;;;;3.22;1.10;;;26.20;68.70;;;;;;5110084;28;20039;-48
2022/08/10 15:09:23;;;;;;;6.25;1.17;;;26.20;68.80;;;;;;5111603;28;20047;-50
2022/08/10 15:11:49;;;;;;;4.88;1.13;;;26.30;69.10;;;;;;5110377;28;20032;-58
2022/08/10 15:14:36;;;;;;;2.55;1.02;;;26.40;69.10;;;;;;5104333;28;20122;-48
2022/08/10 15:17:09;;;;;;;3.13;0.98;;;26.50;69.10;;;;;;5110217;28;20044;-46
2022/08/10 15:19:36;;;;;;;4.25;1.20;;;26.50;67.90;;;;;;5095362;28;20070;-55
2022/08/10 15:22:22;;;;;;;2.38;0.77;;;26.50;68.20;;;;;;5110045;28;20043;-56
2022/08/10 15:25:03;;;;;;;2.05;1.00;;;26.50;68.60;;;;;;5095452;28;20048;-51
2022/08/10 15:27:30;;;;;;;3.03;1.17;;;26.50;68.20;;;;;;5109928;28;20032;-51
2022/08/10 15:30:17;;;;;;;2.38;1.08;;;26.60;68.80;;;;;;5104853;28;20119;-53
2022/08/10 15:38:17;;;;;;;2.72;0.80;;;26.60;66.60;;;;;;5096292;28;20082;-53
2022/08/10 15:40:44;;;;;;;3.88;1.00;;;26.70;67.30;;;;;;5098568;28;20039;-51
2022/08/10 15:43:17;;;;;;;4.85;1.10;;;26.70;67.10;;;;;;5089742;28;20086;-50
2022/08/10 15:45:50;;;;;;;3.47;1.10;;;26.80;66.90;;;;;;5089010;28;20085;-52
2022/08/10 15:48:17;;;;;;;4.90;1.00;;;26.80;66.70;;;;;;5096028;28;20059;-56
2022/08/10 15:50:47;;;;;;;3.20;1.20;;;26.90;66.00;;;;;;5096069;28;20040;-48
2022/08/10 15:53:15;;;;;;;2.83;0.80;;;26.80;65.90;;;;;;5096133;28;20042;-59
2022/08/10 15:55:42;;;;;;;2.53;0.90;;;26.80;65.00;;;;;;5100563;28;20119;-50
2022/08/10 15:58:11;;;;;;;2.75;1.00;;;26.80;65.90;;;;;;5095659;28;20044;-52
2022/08/10 16:00:38;;;;;;;3.30;1.02;;;26.80;65.40;;;;;;5077519;28;20399;-52
2022/08/10 16:03:04;;;;;;;2.25;0.90;;;26.70;65.40;;;;;;5095763;28;20117;-56
2022/08/10 16:05:38;;;;;;;1.77;0.70;;;26.80;65.40;;;;;;5077280;28;20048;-54
2022/08/10 16:08:25;;;;;;;4.15;1.10;;;27.00;65.50;;;;;;5093223;28;20036;-56
2022/08/10 16:10:51;;;;;;;3.80;1.10;;;27.10;64.30;;;;;;5095482;28;20097;-55
2022/08/10 16:13:19;;;;;;;3.40;0.90;;;27.10;65.00;;;;;;5097194;28;20094;-59
2022/08/10 16:16:06;;;;;;;5.53;1.33;;;27.50;65.00;;;;;;5095402;28;20089;-53
2022/08/10 16:18:33;;;;;;;4.93;1.10;;;28.20;64.00;;;;;;5095701;28;20071;-52
2022/08/10 16:20:59;;;;;;;3.60;1.00;;;28.80;63.50;;;;;;5095325;28;20036;-51
2022/08/10 16:23:27;;;;;;;3.28;0.90;;;29.20;62.10;;;;;;5095196;28;20098;-51
2022/08/10 16:25:53;;;;;;;2.58;0.80;;;29.50;61.70;;;;;;5100569;28;20052;-50
2022/08/10 16:28:26;;;;;;;3.63;1.15;;;29.80;61.60;;;;;;5095239;28;20063;-48
2022/08/10 16:30:52;;;;;;;4.93;1.27;;;29.90;61.30;;;;;;5088443;28;20415;-50
2022/08/10 16:33:19;;;;;;;3.28;0.93;;;30.20;60.80;;;;;;5094843;28;20094;-57
2022/08/10 16:35:46;;;;;;;1.67;0.90;;;30.30;59.50;;;;;;5094970;28;20040;-49
2022/08/10 16:38:15;;;;;;;4.93;1.15;;;30.30;60.00;;;;;;5094839;28;20113;-51
2022/08/10 16:40:42;;;;;;;5.47;1.13;;;30.20;60.00;;;;;;5094918;28;20486;-58
2022/08/10 16:43:09;;;;;;;2.03;0.82;;;30.20;60.60;;;;;;5095585;28;20047;-53
2022/08/10 16:45:35;;;;;;;3.08;1.00;;;30.50;60.20;;;;;;5095108;28;20047;-54
2022/08/10 16:48:02;;;;;;;2.13;1.02;;;30.40;60.30;;;;;;5093760;28;20331;-56
2022/08/10 16:50:29;;;;;;;5.40;1.00;;;30.40;60.20;;;;;;5094677;28;20044;-50
2022/08/10 16:52:59;;;;;;;3.42;1.23;;;30.40;60.30;;;;;;5081203;28;20394;-52
2022/08/10 16:55:25;;;;;;;3.08;0.95;;;30.60;60.30;;;;;;5094987;28;20119;-55
2022/08/10 16:58:12;;;;;;;4.07;1.00;;;31.00;60.20;;;;;;5094555;28;20101;-55
2022/08/10 17:00:39;;;;;;;4.35;1.20;;;31.20;59.80;;;;;;5094463;28;20111;-51
2022/08/10 17:03:05;;;;;;;6.53;1.27;;;31.30;59.70;;;;;;5094286;28;20548;-52
2022/08/10 17:05:52;;;;;;;3.22;0.90;;;31.20;58.90;;;;;;5094302;28;20087;-53
2022/08/10 17:08:37;;;;;;;4.00;1.05;;;31.10;59.70;;;;;;5094301;28;20131;-55
2022/08/10 17:11:13;;;;;;;2.22;0.88;;;31.00;59.30;;;;;;5094285;28;20479;-54
2022/08/10 17:13:40;;;;;;;4.80;1.00;;;31.10;60.00;;;;;;5094239;28;20065;-50
2022/08/10 17:16:07;;;;;;;3.63;1.23;;;31.40;60.20;;;;;;5094068;28;20071;-50
2022/08/10 17:18:33;;;;;;;4.00;1.05;;;31.40;59.40;;;;;;5094008;28;20036;-51
2022/08/10 17:21:00;;;;;;;2.22;1.10;;;31.20;59.70;;;;;;5098523;28;20090;-52
2022/08/10 17:23:27;;;;;;;3.92;1.27;;;31.30;60.10;;;;;;5093961;28;20059;-51
2022/08/10 17:25:54;;;;;;;4.35;1.35;;;31.50;60.10;;;;;;5087284;28;20052;-57
2022/08/10 17:28:20;;;;;;;5.13;1.15;;;31.70;59.40;;;;;;5098759;28;20041;-50
2022/08/10 17:31:01;;;;;;;2.97;1.08;;;31.80;59.10;;;;;;5093941;28;20043;-52
2022/08/10 17:33:28;;;;;;;4.75;1.10;;;31.80;59.30;;;;;;5093823;28;20072;-55
2022/08/10 17:35:54;;;;;;;3.78;1.10;;;32.00;58.90;;;;;;5096250;28;20441;-58
2022/08/10 17:38:21;;;;;;;6.78;1.42;;;32.00;58.80;;;;;;5093661;28;20094;-57
2022/08/10 17:40:48;;;;;;;3.40;1.05;;;31.90;58.80;;;;;;5094798;28;20039;-45
2022/08/10 17:43:16;;;;;;;3.20;1.38;;;31.90;58.50;;;;;;5093738;28;20032;-50
2022/08/10 17:46:02;;;;;;;5.00;1.20;;;31.70;58.50;;;;;;5093617;28;20048;-58
2022/08/10 17:48:31;;;;;;;7.93;1.20;;;31.50;59.30;;;;;;5093050;28;20175;-51
2022/08/10 17:50:58;;;;;;;6.53;1.13;;;31.50;59.50;;;;;;5093502;28;20048;-51
2022/08/10 17:53:24;;;;;;;3.30;1.13;;;31.30;59.50;;;;;;5075442;28;20105;-57
2022/08/10 17:55:51;;;;;;;4.97;1.08;;;31.10;59.90;;;;;;5093281;28;20032;-54
2022/08/10 17:58:18;;;;;;;4.72;1.00;;;31.10;60.10;;;;;;5093354;28;20086;-55
2022/08/10 18:00:47;;;;;;;4.45;1.10;;;31.10;60.20;;;;;;5092548;28;20036;-57
2022/08/10 18:03:14;;;;;;;5.82;1.70;;;31.10;59.60;;;;;;5093126;28;20036;-49
2022/08/10 18:05:51;;;;;;;3.60;1.05;;;31.00;59.40;;;;;;5098251;28;20046;-57
2022/08/10 18:08:21;;;;;;;3.50;1.10;;;30.90;59.80;;;;;;5093353;28;20036;-56
2022/08/10 18:10:51;;;;;;;5.40;1.10;;;30.90;59.90;;;;;;5093165;28;20486;-53
2022/08/10 18:13:18;;;;;;;4.30;1.10;;;30.90;60.00;;;;;;5093055;28;20044;-55
2022/08/10 18:15:44;;;;;;;3.88;1.35;;;30.80;60.30;;;;;;5092859;28;20039;-53
2022/08/10 18:18:11;;;;;;;6.43;1.20;;;30.80;60.90;;;;;;5093041;28;20501;-52
2022/08/10 18:20:38;;;;;;;3.05;1.00;;;30.80;61.20;;;;;;5096206;28;20144;-50
2022/08/10 18:23:04;;;;;;;2.55;0.90;;;30.90;60.90;;;;;;5093050;28;20040;-58
2022/08/10 18:25:31;;;;;;;4.32;1.25;;;30.70;60.90;;;;;;5094469;28;20056;-46
2022/08/10 18:27:58;;;;;;;4.93;1.38;;;30.50;61.40;;;;;;5092933;28;20148;-51
2022/08/10 18:30:31;;;;;;;3.72;1.23;;;30.30;61.40;;;;;;5093981;28;20120;-59
2022/08/10 18:33:02;;;;;;;2.92;1.10;;;30.10;61.90;;;;;;5093150;28;20067;-50
2022/08/10 18:35:29;;;;;;;4.15;1.20;;;29.70;62.30;;;;;;5097098;28;20036;-49
2022/08/10 18:38:00;;;;;;;3.72;1.52;;;29.20;63.00;;;;;;5093702;28;20422;-47
2022/08/10 18:40:27;;;;;;;5.68;1.20;;;28.70;63.90;;;;;;5094303;28;20040;-50
2022/08/10 18:43:02;;;;;;;6.88;1.30;;;28.30;64.60;;;;;;5092827;28;20040;-52
2022/08/10 18:45:31;;;;;;;4.43;1.50;;;27.90;65.20;;;;;;5093028;28;20558;-54
2022/08/10 18:47:58;;;;;;;4.68;1.13;;;27.50;66.10;;;;;;5092916;28;20040;-47
2022/08/10 18:50:25;;;;;;;4.10;1.42;;;27.10;66.70;;;;;;5092760;28;20044;-50
2022/08/10 18:52:52;;;;;;;6.07;1.48;;;26.90;67.40;;;;;;5092789;28;20044;-54
2022/08/10 18:55:19;;;;;;;3.53;1.00;;;26.70;68.10;;;;;;5092509;28;20048;-53
2022/08/10 18:57:52;;;;;;;6.18;1.52;;;26.60;68.40;;;;;;5092963;28;20045;-48
2022/08/10 19:00:19;;;;;;;5.50;1.40;;;26.40;68.60;;;;;;5086289;28;20040;-48
2022/08/10 19:02:46;;;;;;;5.35;1.65;;;26.20;69.00;;;;;;5086747;28;20040;-53
2022/08/10 19:05:12;;;;;;;6.43;1.45;;;26.00;69.50;;;;;;5092536;28;20490;-52
2022/08/10 19:07:57;;;;;;;5.63;1.20;;;25.90;69.80;;;;;;5092768;28;20040;-52
2022/08/10 19:10:24;;;;;;;4.40;1.50;;;25.80;70.40;;;;;;5092549;28;20044;-51
2022/08/10 19:12:51;;;;;;;7.18;1.67;;;25.70;70.60;;;;;;5095915;28;20403;-56
2022/08/10 19:15:18;;;;;;;4.93;1.35;;;25.50;71.00;;;;;;5078496;28;20043;-51
2022/08/10 19:17:45;;;;;;;5.30;1.25;;;25.30;71.50;;;;;;5078216;28;20483;-51
2022/08/10 19:20:32;;;;;;;3.13;1.33;;;25.20;71.50;;;;;;5101961;28;20115;-56
2022/08/10 19:23:01;;;;;;;9.43;1.70;;;25.10;71.90;;;;;;5096161;28;20532;-52
2022/08/10 19:25:31;;;;;;;6.55;1.55;;;24.90;72.20;;;;;;5095888;28;20048;-48
2022/08/10 19:28:18;;;;;;;4.78;1.48;;;24.80;72.70;;;;;;5097819;28;20145;-50
2022/08/10 19:30:45;;;;;;;4.95;1.35;;;24.60;73.00;;;;;;5096243;28;20047;-50
2022/08/10 19:33:11;;;;;;;6.15;1.42;;;24.60;73.10;;;;;;5098194;28;20444;-53
2022/08/10 19:35:38;;;;;;;5.45;1.58;;;24.50;73.80;;;;;;5095932;28;20039;-60
2022/08/10 19:38:25;;;;;;;4.65;1.67;;;24.40;73.90;;;;;;5092226;28;20035;-54
2022/08/10 19:40:59;;;;;;;3.22;1.55;;;24.30;74.20;;;;;;5095720;28;20097;-53
2022/08/10 19:43:35;;;;;;;3.20;1.60;;;24.20;74.80;;;;;;5095828;28;20055;-54
2022/08/10 19:46:22;;;;;;;3.83;1.55;;;24.10;75.20;;;;;;5095654;28;20066;-55
2022/08/10 19:48:53;;;;;;;9.65;1.75;;;24.00;75.90;;;;;;5095863;28;20205;-54
2022/08/10 19:51:20;;;;;;;4.60;1.48;;;23.90;76.60;;;;;;5095770;28;20491;-52
2022/08/10 19:53:47;;;;;;;4.38;1.42;;;23.90;77.30;;;;;;5095370;28;20051;-51
2022/08/10 19:56:14;;;;;;;4.00;1.63;;;23.70;77.50;;;;;;5095357;28;20067;-56
2022/08/10 19:59:00;;;;;;;5.50;1.88;;;23.70;78.10;;;;;;5095696;28;20400;-54
2022/08/10 20:01:26;;;;;;;9.30;2.10;;;23.60;78.40;;;;;;5095483;28;20127;-54
2022/08/10 20:04:13;;;;;;;5.68;1.60;;;23.50;79.00;;;;;;5095514;28;20127;-54
2022/08/10 20:06:40;;;;;;;4.57;1.65;;;23.50;80.10;;;;;;5094662;28;20426;-51
2022/08/10 20:09:07;;;;;;;7.28;1.83;;;23.40;80.20;;;;;;5095501;28;20417;-55
2022/08/10 20:11:34;;;;;;;7.38;1.73;;;23.40;80.70;;;;;;5095390;28;20052;-54
2022/08/10 20:14:12;;;;;;;4.10;1.42;;;23.30;81.40;;;;;;5097767;28;20028;-59
2022/08/10 20:16:47;;;;;;;6.47;2.10;;;23.10;82.10;;;;;;5095215;28;20123;-57
2022/08/10 20:19:14;;;;;;;7.22;1.83;;;23.10;82.90;;;;;;5077250;28;20055;-58
2022/08/10 20:21:41;;;;;;;5.13;1.95;;;23.00;83.10;;;;;;5095064;28;20044;-52
2022/08/10 20:24:08;;;;;;;4.97;1.92;;;23.00;84.00;;;;;;5076873;28;20036;-52
2022/08/10 20:26:34;;;;;;;4.53;2.08;;;22.90;84.30;;;;;;5099161;28;20044;-52
2022/08/10 20:29:01;;;;;;;9.48;2.40;;;22.80;84.40;;;;;;5094981;28;20047;-51
2022/08/10 20:31:28;;;;;;;8.98;2.72;;;22.80;85.10;;;;;;5095279;28;20449;-49
2022/08/10 20:33:54;;;;;;;5.22;2.05;;;22.80;85.20;;;;;;5094899;28;20052;-47
2022/08/10 20:36:26;;;;;;;8.88;2.17;;;22.70;85.30;;;;;;5096057;28;20097;-47
2022/08/10 20:38:53;;;;;;;6.35;2.20;;;22.60;85.70;;;;;;5094809;28;20032;-52
2022/08/10 20:41:20;;;;;;;5.07;2.20;;;22.60;85.90;;;;;;5081445;28;20505;-53
2022/08/10 20:43:46;;;;;;;5.03;2.03;;;22.50;86.30;;;;;;5088147;28;20089;-52
2022/08/10 20:46:13;;;;;;;7.80;2.17;;;22.50;86.50;;;;;;5094521;28;20077;-53
2022/08/10 20:48:40;;;;;;;8.65;2.30;;;22.40;86.90;;;;;;5094606;28;20043;-58
2022/08/10 20:51:07;;;;;;;5.30;1.75;;;22.30;87.40;;;;;;5093993;28;20040;-50
